KINL/INL METAR and TAF weather

Enter ICAO airport designator
Station Type Date Time Source
KINL METAR 2021/03/02 15:54 UTC NOAA

KINL 021554Z AUTO 22011G21KT 10SM FEW065 OVC095 M01/M07 A2956 RMK AO2 SLP029 T10111067


Station Type Date Time Source
KINL Decoded METAR 2021/03/02 15:54 UTC NOAA

FALLS INTERNATIONAL AIRPORT , MN, United States (KINL) 48-34N 093-24W 360M
Mar 02, 2021 - 10:54 AM EST / 2021.03.02 1554 UTC
Wind: from the SW (220 degrees) at 13 MPH (11 KT) gusting to 24 MPH (21 KT):0
Visibility: 10 mile(s):0
Sky conditions: overcast
Temperature: 30.0 F (-1.1 C)
Windchill: 19 F (-7 C):1
Dew Point: 19.9 F (-6.7 C)
Relative Humidity: 65%
Pressure (altimeter): 29.56 in. Hg (1001 hPa)
ob: KINL 021554Z AUTO 22011G21KT 10SM FEW065 OVC095 M01/M07 A2956 RMK AO2 SLP029 T10111067
cycle: 16

Station Type Date Time Source
KINL TAF 2021/03/02 12:28 UTC NOAA

TAF KINL 021126Z 0212/0312 20008G17KT P6SM BKN250 WS020/24043KT
FM021600 23010G20KT P6SM BKN250
FM021900 26011G21KT P6SM FEW250
FM022100 30012G20KT P6SM FEW250
FM030600 32004KT P6SM BKN029

Example: see airport list